createdAt,value
2023-05-16T00:01:56.100Z,83.57
2023-05-16T00:31:59.115Z,83.40
2023-05-16T01:02:02.757Z,83.22
2023-05-16T01:32:06.138Z,85.70
2023-05-16T02:02:09.128Z,87.88
2023-05-16T02:32:12.230Z,87.99
2023-05-16T03:02:15.214Z,89.82
2023-05-16T03:32:18.147Z,89.68
2023-05-16T04:02:21.168Z,91.41
2023-05-16T04:32:24.263Z,91.87
2023-05-16T05:02:27.377Z,92.45
2023-05-16T05:32:30.560Z,90.00
2023-05-16T06:02:33.746Z,88.39
2023-05-16T06:32:36.823Z,87.69
2023-05-16T07:02:40.010Z,85.35
2023-05-16T07:32:43.120Z,83.77
2023-05-16T08:02:46.251Z,84.23
2023-05-16T08:32:49.314Z,76.71
2023-05-16T09:02:53.929Z,71.53
2023-05-16T09:32:46.234Z,52.24
2023-05-16T09:32:59.077Z,52.14
2023-05-16T09:33:12.188Z,52.65
2023-05-16T09:33:23.860Z,52.80
2023-05-16T09:33:35.576Z,52.34
2023-05-16T09:33:47.559Z,52.31
2023-05-16T09:34:00.278Z,53.05
2023-05-16T09:34:12.831Z,51.67
2023-05-16T09:34:24.465Z,51.72
2023-05-16T09:34:39.037Z,52.47
2023-05-16T09:34:51.616Z,52.25
2023-05-16T09:35:03.541Z,52.46
2023-05-16T09:35:19.396Z,53.13
2023-05-16T09:35:43.937Z,54.18
2023-05-16T09:35:58.228Z,54.71
2023-05-16T09:36:10.396Z,53.98
2023-05-16T09:36:22.037Z,53.61
2023-05-16T09:36:33.819Z,53.75
2023-05-16T09:36:46.781Z,52.63
2023-05-16T09:36:59.707Z,52.81
2023-05-16T09:37:11.758Z,52.85
2023-05-16T09:37:25.705Z,52.85
2023-05-16T09:37:37.362Z,53.00
2023-05-16T09:37:50.019Z,52.56
2023-05-16T09:38:02.572Z,52.58
2023-05-16T09:38:15.474Z,52.99
2023-05-16T09:38:27.896Z,52.94
2023-05-16T09:38:39.523Z,53.06
2023-05-16T09:38:52.267Z,53.15
2023-05-16T09:39:03.931Z,51.14
2023-05-16T09:39:15.759Z,50.59
2023-05-16T09:39:27.723Z,50.62
2023-05-16T09:39:42.866Z,50.23
2023-05-16T09:39:54.948Z,50.88
2023-05-16T09:40:08.618Z,51.13
2023-05-16T09:40:20.918Z,51.22
2023-05-16T09:40:32.570Z,51.59
2023-05-16T09:40:44.931Z,51.39
2023-05-16T09:40:57.776Z,51.09
2023-05-16T09:41:10.149Z,50.98
2023-05-16T09:41:22.174Z,51.04
2023-05-16T09:41:34.145Z,50.02
2023-05-16T09:41:45.915Z,50.88
2023-05-16T09:41:59.153Z,51.30
2023-05-16T09:42:11.499Z,51.53
2023-05-16T09:42:26.350Z,51.03
2023-05-16T09:42:38.117Z,50.43
2023-05-16T09:43:04.621Z,50.62
2023-05-16T09:43:17.604Z,50.17
2023-05-16T09:43:29.793Z,50.13
2023-05-16T09:43:43.624Z,50.42
2023-05-16T09:43:55.615Z,50.81
2023-05-16T09:44:07.380Z,50.95
2023-05-16T09:44:19.161Z,51.07
2023-05-16T09:44:31.682Z,51.19
2023-05-16T09:44:46.782Z,51.11
2023-05-16T09:44:59.393Z,51.07
2023-05-16T09:45:12.916Z,50.74
2023-05-16T09:45:24.685Z,49.97
2023-05-16T09:45:36.930Z,48.69
2023-05-16T09:45:49.122Z,48.53
2023-05-16T09:46:02.716Z,48.91
2023-05-16T09:46:15.073Z,49.92
2023-05-16T09:46:28.644Z,49.11
2023-05-16T09:46:41.127Z,49.04
2023-05-16T09:46:54.444Z,49.44
2023-05-16T09:47:06.386Z,49.57
2023-05-16T09:47:19.705Z,49.95
2023-05-16T09:47:31.312Z,50.26
2023-05-16T09:47:46.560Z,49.64
2023-05-16T09:48:02.451Z,49.11
2023-05-16T09:48:14.983Z,48.90
2023-05-16T09:48:28.566Z,48.60
2023-05-16T09:48:42.296Z,48.16
2023-05-16T09:48:55.333Z,48.11
2023-05-16T09:49:07.010Z,47.93
2023-05-16T09:49:19.022Z,47.95
2023-05-16T09:49:30.914Z,48.27
2023-05-16T09:49:43.755Z,48.74
2023-05-16T09:49:56.606Z,47.45
2023-05-16T09:50:08.972Z,46.78
2023-05-16T09:50:20.689Z,46.32
2023-05-16T09:50:33.471Z,46.33
2023-05-16T09:50:51.095Z,46.48
2023-05-16T09:51:06.832Z,46.83
2023-05-16T09:51:22.316Z,46.83
2023-05-16T09:51:34.499Z,47.33
2023-05-16T09:51:46.412Z,45.74
2023-05-16T09:52:01.126Z,45.96
2023-05-16T09:52:14.451Z,45.48
2023-05-16T09:52:26.996Z,44.93
2023-05-16T09:52:38.629Z,45.12
2023-05-16T09:52:51.059Z,45.14
2023-05-16T09:53:03.013Z,44.78
2023-05-16T09:53:14.622Z,44.59
2023-05-16T09:53:28.558Z,45.02
2023-05-16T09:53:41.578Z,44.53
2023-05-16T09:53:53.229Z,44.55
2023-05-16T09:54:07.991Z,44.50
2023-05-16T09:54:29.968Z,43.18
2023-05-16T09:54:42.579Z,43.42
2023-05-16T09:54:54.804Z,43.69
2023-05-16T09:55:07.457Z,43.23
2023-05-16T09:55:19.263Z,43.34
2023-05-16T09:55:31.340Z,43.56
2023-05-16T09:55:43.334Z,43.19
2023-05-16T09:56:03.421Z,43.45
2023-05-16T09:56:15.833Z,43.25
2023-05-16T09:56:27.485Z,42.97
2023-05-16T09:56:49.118Z,43.15
2023-05-16T09:57:02.853Z,43.11
2023-05-16T09:57:19.257Z,43.09
2023-05-16T09:57:30.978Z,43.29
2023-05-16T09:57:42.614Z,43.43
2023-05-16T09:57:55.353Z,43.71
2023-05-16T09:58:06.965Z,43.52
2023-05-16T09:58:18.843Z,43.69
2023-05-16T09:58:31.293Z,43.89
2023-05-16T09:58:46.051Z,43.86
2023-05-16T09:59:00.274Z,43.12
2023-05-16T09:59:11.992Z,42.60
2023-05-16T09:59:23.947Z,42.52
2023-05-16T09:59:36.498Z,42.41
2023-05-16T09:59:48.323Z,42.36
2023-05-16T10:00:02.004Z,42.20
2023-05-16T10:00:14.885Z,42.46
2023-05-16T10:00:30.022Z,42.52
2023-05-16T10:00:41.736Z,42.38
2023-05-16T10:00:53.594Z,42.11
2023-05-16T10:01:07.335Z,41.32
2023-05-16T10:01:19.435Z,41.35
2023-05-16T10:01:31.255Z,40.37
2023-05-16T10:01:43.807Z,40.47
2023-05-16T10:01:57.775Z,40.25
2023-05-16T10:02:11.506Z,40.43
2023-05-16T10:02:23.455Z,40.77
2023-05-16T10:02:35.701Z,41.31
2023-05-16T10:02:49.844Z,40.39
2023-05-16T10:03:04.879Z,40.95
2023-05-16T10:03:18.086Z,41.41
2023-05-16T10:03:31.539Z,41.88
2023-05-16T10:03:43.711Z,42.24
2023-05-16T10:03:55.686Z,42.32
2023-05-16T10:04:10.482Z,42.73
2023-05-16T10:04:24.846Z,42.99
2023-05-16T10:04:36.810Z,43.61
2023-05-16T10:04:49.458Z,43.34
2023-05-16T10:05:01.196Z,42.87
2023-05-16T10:05:12.779Z,43.07
2023-05-16T10:05:24.981Z,43.58
2023-05-16T10:05:36.831Z,43.47
2023-05-16T10:05:48.471Z,43.76
2023-05-16T10:06:01.257Z,43.54
2023-05-16T10:06:13.665Z,44.49
2023-05-16T10:06:26.014Z,41.84
2023-05-16T10:06:40.304Z,41.49
2023-05-16T10:06:52.318Z,42.81
2023-05-16T10:07:04.920Z,43.07
2023-05-16T10:07:17.668Z,43.42
2023-05-16T10:07:32.784Z,43.11
2023-05-16T10:07:44.572Z,42.76
2023-05-16T10:07:57.193Z,42.61
2023-05-16T10:08:09.658Z,43.28
2023-05-16T10:08:21.994Z,43.01
2023-05-16T10:08:36.740Z,41.89
2023-05-16T10:08:48.802Z,41.69
2023-05-16T10:09:03.062Z,40.19
2023-05-16T10:09:16.313Z,39.83
2023-05-16T10:09:28.869Z,40.30
2023-05-16T10:09:41.849Z,40.46
2023-05-16T10:09:54.757Z,40.86
2023-05-16T10:10:08.248Z,41.02
2023-05-16T10:10:20.507Z,41.20
2023-05-16T10:10:35.698Z,40.85
2023-05-16T10:10:51.504Z,40.16
2023-05-16T10:11:04.026Z,40.60
2023-05-16T10:11:16.894Z,41.27
2023-05-16T10:11:28.633Z,40.59
2023-05-16T10:11:42.560Z,41.20
2023-05-16T10:11:55.975Z,40.90
2023-05-16T10:12:09.425Z,40.42
2023-05-16T10:12:27.533Z,39.81
2023-05-16T10:12:39.662Z,39.68
2023-05-16T10:12:51.746Z,39.86
2023-05-16T10:13:05.827Z,40.79
2023-05-16T10:13:21.518Z,40.11
2023-05-16T10:13:34.737Z,38.77
2023-05-16T10:13:50.457Z,38.02
2023-05-16T10:14:03.067Z,38.71
2023-05-16T10:14:17.984Z,38.00
2023-05-16T10:14:30.667Z,38.80
2023-05-16T10:14:42.433Z,39.44
2023-05-16T10:14:54.134Z,39.66
2023-05-16T10:15:07.621Z,40.18
2023-05-16T10:15:19.951Z,39.95
2023-05-16T10:15:34.298Z,40.51
2023-05-16T10:15:46.701Z,40.98
2023-05-16T10:16:00.458Z,40.57
2023-05-16T10:16:12.786Z,40.54
2023-05-16T10:16:26.754Z,40.34
2023-05-16T10:16:40.741Z,39.67
2023-05-16T10:16:53.136Z,39.77
2023-05-16T10:17:07.073Z,39.58
2023-05-16T10:17:19.033Z,39.77
2023-05-16T10:17:32.751Z,40.03
2023-05-16T10:17:52.569Z,39.33
2023-05-16T10:18:04.931Z,39.31
2023-05-16T10:18:18.209Z,39.54
2023-05-16T10:18:30.905Z,39.87
2023-05-16T10:18:42.848Z,39.00
2023-05-16T10:18:56.241Z,39.06
2023-05-16T10:19:07.935Z,39.07
2023-05-16T10:19:21.857Z,39.16
2023-05-16T10:19:36.241Z,39.13
2023-05-16T10:19:48.624Z,38.91
2023-05-16T10:20:01.999Z,38.49
2023-05-16T10:20:14.784Z,38.00
2023-05-16T10:20:26.924Z,38.12
2023-05-16T10:20:40.046Z,37.69
2023-05-16T10:20:53.825Z,37.73
2023-05-16T10:21:10.477Z,37.56
2023-05-16T10:21:25.734Z,38.49
2023-05-16T10:21:38.990Z,38.78
2023-05-16T10:21:54.642Z,38.30
2023-05-16T10:22:07.245Z,38.84
2023-05-16T10:22:20.104Z,39.87
2023-05-16T10:22:33.295Z,39.97
2023-05-16T10:22:46.341Z,39.20
2023-05-16T10:22:58.477Z,39.25
2023-05-16T10:23:12.865Z,40.13
2023-05-16T10:23:26.324Z,39.68
2023-05-16T10:23:39.272Z,39.62
2023-05-16T10:23:51.824Z,39.04
2023-05-16T10:24:05.657Z,38.45
2023-05-16T10:24:18.494Z,37.67
2023-05-16T10:24:34.395Z,37.72
2023-05-16T10:24:49.023Z,37.59
2023-05-16T10:25:06.200Z,38.21
2023-05-16T10:25:20.719Z,38.87
2023-05-16T10:25:36.015Z,38.88
2023-05-16T10:25:49.115Z,38.26
2023-05-16T10:26:03.447Z,37.94
2023-05-16T10:26:17.477Z,37.22
2023-05-16T10:26:29.832Z,37.71
2023-05-16T10:26:42.588Z,37.78
2023-05-16T10:26:54.332Z,37.83
2023-05-16T10:27:06.253Z,37.89
2023-05-16T10:27:19.414Z,37.69
2023-05-16T10:27:31.389Z,37.93
2023-05-16T10:27:43.150Z,37.13
2023-05-16T10:27:55.999Z,36.92
2023-05-16T10:28:08.650Z,36.63
2023-05-16T10:28:20.756Z,37.12
2023-05-16T10:28:33.076Z,36.78
2023-05-16T10:28:46.586Z,37.50
2023-05-16T10:28:58.702Z,37.43
2023-05-16T10:29:10.557Z,37.86
2023-05-16T10:29:22.834Z,38.42
2023-05-16T10:29:46.503Z,38.28
2023-05-16T10:30:09.985Z,37.54
2023-05-16T10:30:22.372Z,36.88
2023-05-16T10:30:34.299Z,36.71
2023-05-16T10:30:46.893Z,36.90
2023-05-16T10:30:59.466Z,36.98
2023-05-16T10:31:13.511Z,37.66
2023-05-16T10:31:25.686Z,37.50
2023-05-16T10:31:37.650Z,37.69
2023-05-16T10:31:49.464Z,37.58
2023-05-16T10:32:01.615Z,38.01
2023-05-16T10:32:13.838Z,38.10
2023-05-16T10:32:27.373Z,37.32
2023-05-16T10:32:42.536Z,37.63
2023-05-16T10:32:57.255Z,37.85
2023-05-16T10:33:09.205Z,37.96
2023-05-16T10:33:21.037Z,38.01
2023-05-16T10:33:33.676Z,37.43
2023-05-16T10:33:46.032Z,37.72
2023-05-16T10:33:57.785Z,37.92
2023-05-16T10:34:10.202Z,37.82
2023-05-16T10:34:22.313Z,37.72
2023-05-16T10:34:34.297Z,38.16
2023-05-16T10:34:47.505Z,38.54
2023-05-16T10:35:01.163Z,38.79
2023-05-16T10:35:12.881Z,38.58
2023-05-16T10:35:24.842Z,38.89
2023-05-16T10:35:38.916Z,38.83
2023-05-16T10:35:52.398Z,38.90
2023-05-16T10:36:05.531Z,39.16
2023-05-16T10:36:18.368Z,39.20
2023-05-16T10:36:31.264Z,38.95
2023-05-16T10:36:43.612Z,38.85
2023-05-16T10:36:55.327Z,38.60
2023-05-16T10:37:08.397Z,38.82
2023-05-16T10:37:20.120Z,39.20
2023-05-16T10:37:32.177Z,38.22
2023-05-16T10:37:44.417Z,37.54
2023-05-16T10:37:57.291Z,37.55
2023-05-16T10:38:12.032Z,37.60
2023-05-16T10:38:24.977Z,37.41
2023-05-16T10:38:37.972Z,36.76
2023-05-16T10:38:49.968Z,36.83
2023-05-16T10:39:02.424Z,36.61
2023-05-16T10:39:15.256Z,36.07
2023-05-16T10:39:27.952Z,36.44
2023-05-16T10:39:39.852Z,36.63
2023-05-16T10:39:53.080Z,37.52
2023-05-16T10:40:07.901Z,37.17
2023-05-16T10:40:19.981Z,36.42
2023-05-16T10:40:32.033Z,35.49
2023-05-16T10:40:44.057Z,35.47
2023-05-16T10:40:56.141Z,35.44
2023-05-16T10:41:09.695Z,35.95
2023-05-16T10:41:22.053Z,35.79
2023-05-16T10:41:34.145Z,35.32
2023-05-16T10:41:46.376Z,34.85
2023-05-16T10:41:58.196Z,34.97
2023-05-16T10:42:09.938Z,35.30
2023-05-16T10:42:23.130Z,35.74
2023-05-16T10:42:35.028Z,35.77
2023-05-16T10:42:56.447Z,35.18
2023-05-16T10:43:09.116Z,35.22
2023-05-16T10:43:24.829Z,34.88
2023-05-16T10:43:37.492Z,34.13
2023-05-16T10:43:56.544Z,33.81
2023-05-16T10:44:13.803Z,34.62
2023-05-16T10:44:25.955Z,34.72
2023-05-16T10:44:39.416Z,34.59
2023-05-16T10:45:04.965Z,34.63
2023-05-16T10:45:18.241Z,35.47
2023-05-16T10:45:30.401Z,35.42
2023-05-16T10:45:42.507Z,35.41
2023-05-16T10:45:55.733Z,35.46
2023-05-16T10:46:09.664Z,35.26
2023-05-16T10:46:24.347Z,35.20
2023-05-16T10:46:38.528Z,34.34
2023-05-16T10:46:50.372Z,34.29
2023-05-16T10:47:04.485Z,34.18
2023-05-16T10:47:19.248Z,34.59
2023-05-16T10:47:31.897Z,33.23
2023-05-16T10:47:51.650Z,34.20
2023-05-16T10:48:06.495Z,33.64
2023-05-16T10:48:29.141Z,34.39
2023-05-16T10:48:43.956Z,34.41
2023-05-16T10:48:59.091Z,33.81
2023-05-16T10:49:20.923Z,33.81
2023-05-16T10:49:32.576Z,34.32
2023-05-16T10:49:44.188Z,34.28
2023-05-16T10:49:56.758Z,34.69
2023-05-16T10:50:08.997Z,35.05
2023-05-16T10:50:34.381Z,34.29
2023-05-16T10:50:46.608Z,34.96
2023-05-16T10:50:59.448Z,34.47
2023-05-16T10:51:36.431Z,34.07
2023-05-16T10:52:02.211Z,36.12
2023-05-16T10:52:15.708Z,34.59
2023-05-16T10:52:34.694Z,33.45
2023-05-16T10:52:46.354Z,33.82
2023-05-16T10:53:12.345Z,33.55
2023-05-16T10:53:32.957Z,33.17
2023-05-16T10:53:44.644Z,33.58
2023-05-16T10:54:06.204Z,32.89
2023-05-16T10:54:19.529Z,32.97
2023-05-16T10:54:38.276Z,33.17
2023-05-16T10:54:52.351Z,33.46
2023-05-16T10:55:04.821Z,31.58
2023-05-16T10:55:18.053Z,32.50
2023-05-16T10:55:30.529Z,33.04
2023-05-16T10:55:46.225Z,32.19
2023-05-16T10:56:10.378Z,32.93
2023-05-16T10:56:23.288Z,32.95
2023-05-16T10:56:35.127Z,32.67
2023-05-16T10:56:56.228Z,32.88
2023-05-16T10:57:11.720Z,32.16
2023-05-16T10:57:23.995Z,32.25
2023-05-16T10:57:36.731Z,32.54
2023-05-16T10:57:48.448Z,32.83
2023-05-16T10:58:03.282Z,32.41
2023-05-16T10:58:19.204Z,32.50
2023-05-16T10:58:41.192Z,32.67
2023-05-16T10:58:55.346Z,33.12
2023-05-16T10:59:23.076Z,32.84
2023-05-16T10:59:42.369Z,32.79
2023-05-16T10:59:58.402Z,34.02
2023-05-16T11:00:22.142Z,32.86
2023-05-16T11:00:33.886Z,32.97
2023-05-16T11:00:45.494Z,33.20
2023-05-16T11:01:15.683Z,33.24
2023-05-16T11:01:30.190Z,32.98
2023-05-16T11:01:42.006Z,32.10
2023-05-16T11:01:55.186Z,32.06
2023-05-16T11:02:21.997Z,32.19
2023-05-16T11:02:43.149Z,32.49
2023-05-16T11:03:06.571Z,32.93
2023-05-16T11:03:25.419Z,32.83
2023-05-16T11:03:37.375Z,32.42
2023-05-16T11:04:11.076Z,33.35
2023-05-16T11:04:22.761Z,33.07
2023-05-16T11:04:46.001Z,33.06
2023-05-16T11:04:59.464Z,32.74
2023-05-16T11:05:15.172Z,32.73
2023-05-16T11:05:27.696Z,33.26
2023-05-16T11:05:39.528Z,33.09
2023-05-16T11:05:53.975Z,33.06
2023-05-16T11:06:06.162Z,33.71
2023-05-16T11:06:23.521Z,34.07
2023-05-16T11:06:45.834Z,34.22
2023-05-16T11:06:58.397Z,33.25
2023-05-16T11:07:11.316Z,33.24
2023-05-16T11:07:24.183Z,33.55
2023-05-16T11:07:38.513Z,33.95
2023-05-16T11:08:04.425Z,33.28
2023-05-16T11:08:16.222Z,33.72
2023-05-16T11:08:27.907Z,35.19
2023-05-16T11:08:58.500Z,34.26
2023-05-16T11:09:22.124Z,34.39
2023-05-16T11:09:33.848Z,34.39
2023-05-16T11:09:45.777Z,34.94
2023-05-16T11:10:08.083Z,34.50
2023-05-16T11:10:21.622Z,34.15
2023-05-16T11:10:33.517Z,34.23
2023-05-16T11:10:45.556Z,34.57
2023-05-16T11:11:26.958Z,35.37
2023-05-16T11:11:44.330Z,35.31
2023-05-16T11:12:02.851Z,35.27
2023-05-16T11:12:16.103Z,34.62
2023-05-16T11:12:37.133Z,33.67
2023-05-16T11:12:49.627Z,32.88
2023-05-16T11:13:03.927Z,32.60
2023-05-16T11:13:19.583Z,32.17
2023-05-16T11:13:34.169Z,32.15
2023-05-16T11:13:57.502Z,31.76
2023-05-16T11:14:09.330Z,31.72
2023-05-16T11:14:22.161Z,31.97
2023-05-16T11:14:39.236Z,31.27
2023-05-16T11:14:52.912Z,31.81
2023-05-16T11:15:18.891Z,31.94
2023-05-16T11:15:32.441Z,31.49
2023-05-16T11:15:44.305Z,31.03
2023-05-16T11:16:28.423Z,31.35
2023-05-16T11:16:40.226Z,31.77
2023-05-16T11:16:53.606Z,31.92
2023-05-16T11:17:08.547Z,32.06
2023-05-16T11:17:22.860Z,31.65
2023-05-16T11:17:44.053Z,32.37
2023-05-16T11:18:09.762Z,32.37
2023-05-16T11:18:26.087Z,31.21
2023-05-16T11:18:50.258Z,32.05
2023-05-16T11:19:05.102Z,32.05
2023-05-16T11:19:29.358Z,31.93
2023-05-16T11:19:43.397Z,31.88
2023-05-16T11:19:59.561Z,32.23
2023-05-16T11:20:25.755Z,32.60
2023-05-16T11:20:39.370Z,32.07
2023-05-16T11:20:52.891Z,32.31
2023-05-16T11:21:04.899Z,32.38
2023-05-16T11:21:16.739Z,32.69
2023-05-16T11:22:02.937Z,32.65
2023-05-16T11:22:23.255Z,33.40
2023-05-16T11:22:41.146Z,34.24
2023-05-16T11:23:19.728Z,33.95
2023-05-16T11:23:31.485Z,34.04
2023-05-16T11:23:44.149Z,34.15
2023-05-16T11:24:28.936Z,33.61
2023-05-16T11:24:49.518Z,33.54
2023-05-16T11:25:04.158Z,33.50
2023-05-16T11:25:15.856Z,33.45
2023-05-16T11:25:36.064Z,34.49
2023-05-16T11:25:50.627Z,34.48
2023-05-16T11:26:03.425Z,34.58
2023-05-16T11:26:16.012Z,34.21
2023-05-16T11:26:27.648Z,33.42
2023-05-16T11:26:39.287Z,32.99
2023-05-16T11:26:50.931Z,33.27
2023-05-16T11:27:03.811Z,33.13
2023-05-16T11:27:21.297Z,32.82
2023-05-16T11:27:35.341Z,33.37
2023-05-16T11:27:47.970Z,33.44
2023-05-16T11:27:59.785Z,32.88
2023-05-16T11:28:13.370Z,32.95
2023-05-16T11:28:26.019Z,32.44
2023-05-16T11:28:37.681Z,32.26
2023-05-16T11:28:49.647Z,32.48
2023-05-16T11:29:03.956Z,32.10
2023-05-16T11:29:15.661Z,32.23
2023-05-16T11:29:28.781Z,32.76
2023-05-16T11:29:40.361Z,32.62
2023-05-16T11:29:52.555Z,32.83
2023-05-16T11:30:13.876Z,32.99
2023-05-16T11:30:25.472Z,33.98
2023-05-16T11:30:37.105Z,34.30
2023-05-16T11:30:51.103Z,34.79
2023-05-16T11:31:05.256Z,35.46
2023-05-16T11:31:18.257Z,34.46
2023-05-16T11:31:30.282Z,33.79
2023-05-16T11:31:42.996Z,34.45
2023-05-16T11:31:54.966Z,34.34
2023-05-16T11:32:06.965Z,34.48
2023-05-16T11:32:22.761Z,34.56
2023-05-16T11:32:35.906Z,34.69
2023-05-16T11:32:50.660Z,34.79
2023-05-16T11:33:02.702Z,35.58
2023-05-16T11:33:16.397Z,33.47
2023-05-16T11:33:31.847Z,33.59
2023-05-16T11:33:44.983Z,33.44
2023-05-16T11:33:58.409Z,33.72
2023-05-16T11:34:10.035Z,34.46
2023-05-16T11:34:21.838Z,35.03
2023-05-16T11:34:37.678Z,35.15
2023-05-16T11:34:50.904Z,34.61
2023-05-16T11:35:03.634Z,34.77
2023-05-16T11:35:16.831Z,34.75
2023-05-16T11:35:29.253Z,34.97
2023-05-16T11:35:41.280Z,34.92
2023-05-16T11:36:25.518Z,33.35
2023-05-16T11:36:38.636Z,33.50
2023-05-16T11:36:50.357Z,33.39
2023-05-16T11:37:02.641Z,32.43
2023-05-16T11:37:15.077Z,32.56
2023-05-16T11:37:27.757Z,33.00
2023-05-16T11:37:39.720Z,32.98
2023-05-16T11:37:52.042Z,32.70
2023-05-16T11:38:03.731Z,32.58
2023-05-16T11:38:16.843Z,32.32
2023-05-16T11:38:30.415Z,31.83
2023-05-16T11:38:43.779Z,31.69
2023-05-16T11:39:06.320Z,32.28
2023-05-16T11:39:19.324Z,32.19
2023-05-16T11:39:32.259Z,31.47
2023-05-16T11:39:44.060Z,31.60
2023-05-16T11:40:00.444Z,31.90
2023-05-16T11:40:13.629Z,31.70
2023-05-16T11:40:27.066Z,31.80
2023-05-16T11:40:42.608Z,32.33
2023-05-16T11:40:54.335Z,32.35
2023-05-16T11:41:07.968Z,32.34
2023-05-16T11:41:21.138Z,31.81
2023-05-16T11:41:32.880Z,31.41
2023-05-16T11:41:44.539Z,31.18
2023-05-16T11:41:56.181Z,31.31
2023-05-16T11:42:07.931Z,31.74
2023-05-16T11:42:20.688Z,31.90
2023-05-16T11:42:35.353Z,31.77
2023-05-16T11:42:47.840Z,31.92
2023-05-16T11:43:01.027Z,31.74
2023-05-16T11:43:18.327Z,30.84
2023-05-16T11:43:30.420Z,31.13
2023-05-16T11:43:44.787Z,31.72
2023-05-16T11:44:12.657Z,30.92
2023-05-16T11:44:24.360Z,31.22
2023-05-16T11:44:36.070Z,31.32
2023-05-16T11:44:47.721Z,31.61
2023-05-16T11:45:05.375Z,32.39
2023-05-16T11:45:19.912Z,32.09
2023-05-16T11:45:31.611Z,31.21
2023-05-16T11:45:43.819Z,30.94
2023-05-16T11:45:56.059Z,31.09
2023-05-16T11:46:07.892Z,31.22
2023-05-16T11:46:19.591Z,31.03
2023-05-16T11:46:32.458Z,30.76
2023-05-16T11:46:44.321Z,30.49
2023-05-16T11:46:56.582Z,31.10
2023-05-16T11:47:08.781Z,31.29
2023-05-16T11:47:20.518Z,31.74
2023-05-16T11:47:32.375Z,31.79
2023-05-16T11:47:47.915Z,31.28
2023-05-16T11:48:02.426Z,30.96
2023-05-16T11:48:24.855Z,31.04
2023-05-16T11:48:40.813Z,30.37
2023-05-16T11:48:53.495Z,30.13
2023-05-16T11:49:07.250Z,30.46
2023-05-16T11:49:18.989Z,30.56
2023-05-16T11:49:31.185Z,30.18
2023-05-16T11:49:43.271Z,29.52
2023-05-16T11:49:57.833Z,28.43
2023-05-16T11:50:14.227Z,28.25
2023-05-16T11:50:26.192Z,28.52
2023-05-16T11:50:38.121Z,28.40
2023-05-16T11:50:50.115Z,28.25
2023-05-16T11:51:01.897Z,28.70
2023-05-16T11:51:18.737Z,30.10
2023-05-16T11:51:31.004Z,30.29
2023-05-16T11:51:43.389Z,30.13
2023-05-16T11:51:57.490Z,29.87
2023-05-16T11:52:10.645Z,30.06
2023-05-16T11:52:23.311Z,30.06
2023-05-16T11:52:35.198Z,30.76
2023-05-16T11:52:48.125Z,30.69
2023-05-16T11:52:59.996Z,30.57
2023-05-16T11:53:14.251Z,29.70
2023-05-16T11:53:26.116Z,29.19
2023-05-16T11:53:38.303Z,29.11
2023-05-16T11:53:52.280Z,29.11
2023-05-16T11:54:04.999Z,29.55
2023-05-16T11:54:18.084Z,29.65
2023-05-16T11:54:29.891Z,29.18
2023-05-16T11:54:42.413Z,29.54
2023-05-16T11:54:55.016Z,29.69
2023-05-16T11:55:08.191Z,30.06
2023-05-16T11:55:36.899Z,30.33
2023-05-16T11:55:55.741Z,31.03
2023-05-16T11:56:08.906Z,29.98
2023-05-16T11:56:22.220Z,29.40
2023-05-16T11:56:36.422Z,29.19
2023-05-16T11:56:48.679Z,29.17
2023-05-16T11:57:00.587Z,29.68
2023-05-16T11:57:12.418Z,29.71
2023-05-16T11:57:24.175Z,29.52
2023-05-16T11:57:36.137Z,29.42
2023-05-16T11:57:48.899Z,29.61
2023-05-16T11:58:00.946Z,29.55
2023-05-16T11:58:12.840Z,29.67
2023-05-16T11:58:24.631Z,29.17
2023-05-16T11:58:36.934Z,29.00
2023-05-16T11:58:50.558Z,29.66
2023-05-16T11:59:02.463Z,30.31
2023-05-16T11:59:15.719Z,30.39
2023-05-16T11:59:27.669Z,30.37
2023-05-16T11:59:41.541Z,30.64
2023-05-16T11:59:53.381Z,30.89
2023-05-16T12:00:08.034Z,30.27
2023-05-16T12:00:21.829Z,29.52
2023-05-16T12:00:34.682Z,29.92
2023-05-16T12:00:50.039Z,29.99
2023-05-16T12:01:05.346Z,30.32
2023-05-16T12:01:17.164Z,30.61
2023-05-16T12:01:32.506Z,31.07
2023-05-16T12:01:44.212Z,31.26
2023-05-16T12:01:55.949Z,30.90
2023-05-16T12:02:09.817Z,30.90
2023-05-16T12:02:21.989Z,30.85
2023-05-16T12:02:34.364Z,31.12
2023-05-16T12:02:50.228Z,31.03
2023-05-16T12:03:04.572Z,31.88
2023-05-16T12:03:19.104Z,32.29
2023-05-16T12:03:33.594Z,32.36
2023-05-16T12:03:45.683Z,32.60
2023-05-16T12:03:58.255Z,33.01
2023-05-16T12:04:12.506Z,33.25
2023-05-16T12:04:24.687Z,32.45
2023-05-16T12:04:38.288Z,32.81
2023-05-16T12:04:50.689Z,32.54
2023-05-16T12:05:10.043Z,32.52
2023-05-16T12:05:25.488Z,32.05
2023-05-16T12:05:37.620Z,31.90
2023-05-16T12:05:53.531Z,32.66
2023-05-16T12:06:05.495Z,33.87
2023-05-16T12:06:17.339Z,33.80
2023-05-16T12:06:31.306Z,33.08
2023-05-16T12:06:44.537Z,33.01
2023-05-16T12:07:02.528Z,31.33
2023-05-16T12:07:15.029Z,31.14
2023-05-16T12:07:28.484Z,31.39
2023-05-16T12:07:41.850Z,31.45
2023-05-16T12:07:54.375Z,31.80
2023-05-16T12:08:07.133Z,31.92
2023-05-16T12:08:19.037Z,32.22
2023-05-16T12:08:31.157Z,31.62
2023-05-16T12:08:51.100Z,31.32
2023-05-16T12:09:07.473Z,31.55
2023-05-16T12:09:19.206Z,31.11
2023-05-16T12:09:32.058Z,31.28
2023-05-16T12:09:53.546Z,30.19
2023-05-16T12:10:07.218Z,30.07
2023-05-16T12:10:18.920Z,30.12
2023-05-16T12:10:31.895Z,30.09
2023-05-16T12:10:46.229Z,30.67
2023-05-16T12:10:59.085Z,30.50
2023-05-16T12:11:10.866Z,30.95
2023-05-16T12:11:23.779Z,30.81
2023-05-16T12:11:35.657Z,30.37
2023-05-16T12:11:47.316Z,30.50
2023-05-16T12:12:00.171Z,31.02
2023-05-16T12:12:11.926Z,31.22
2023-05-16T12:12:23.791Z,30.99
2023-05-16T12:12:36.016Z,30.78
2023-05-16T12:12:48.605Z,30.44
2023-05-16T12:13:00.322Z,30.27
2023-05-16T12:13:13.045Z,30.55
2023-05-16T12:13:25.484Z,31.22
2023-05-16T12:13:37.201Z,30.51
2023-05-16T12:13:49.232Z,29.76
2023-05-16T12:14:01.163Z,30.52
2023-05-16T12:14:16.047Z,30.61
2023-05-16T12:14:27.942Z,31.50
2023-05-16T12:14:39.706Z,31.48
2023-05-16T12:14:51.554Z,31.18
2023-05-16T12:15:04.342Z,31.01
2023-05-16T12:15:17.316Z,31.06
2023-05-16T12:15:29.569Z,30.15
2023-05-16T12:15:42.646Z,30.00
2023-05-16T12:15:54.645Z,30.23
2023-05-16T12:16:06.918Z,30.50
2023-05-16T12:16:19.011Z,30.81
2023-05-16T12:16:32.903Z,30.42
2023-05-16T12:16:46.515Z,30.84
2023-05-16T12:16:58.505Z,29.85
2023-05-16T12:17:11.058Z,29.13
2023-05-16T12:17:22.981Z,29.23
2023-05-16T12:17:34.868Z,29.67
2023-05-16T12:17:48.165Z,29.76
2023-05-16T12:18:00.107Z,30.92
2023-05-16T12:18:14.143Z,30.29
2023-05-16T12:18:26.344Z,30.37
2023-05-16T12:18:41.219Z,29.58
2023-05-16T12:18:54.581Z,30.27
2023-05-16T12:19:07.939Z,30.80
2023-05-16T12:19:20.497Z,30.94
2023-05-16T12:19:32.593Z,31.00
2023-05-16T12:19:46.445Z,30.92
2023-05-16T12:19:58.327Z,30.96
2023-05-16T12:20:13.472Z,31.15
2023-05-16T12:20:28.924Z,31.55
2023-05-16T12:20:41.005Z,31.53
2023-05-16T12:20:53.366Z,30.56
2023-05-16T12:21:05.810Z,30.63
2023-05-16T12:21:19.648Z,30.54
2023-05-16T12:21:31.919Z,30.14
2023-05-16T12:21:43.588Z,30.50
2023-05-16T12:21:55.390Z,30.17
2023-05-16T12:22:17.360Z,30.11
2023-05-16T12:22:29.122Z,30.58
2023-05-16T12:22:43.912Z,30.73
2023-05-16T12:22:58.176Z,31.58
2023-05-16T12:23:11.551Z,31.78
2023-05-16T12:23:24.668Z,32.08
2023-05-16T12:23:36.387Z,32.24
2023-05-16T12:23:48.178Z,32.23
2023-05-16T12:24:00.129Z,32.19
2023-05-16T12:24:12.719Z,32.52
2023-05-16T12:24:30.428Z,32.35
2023-05-16T12:24:43.178Z,32.12
2023-05-16T12:24:54.935Z,31.84
2023-05-16T12:25:23.415Z,31.77
2023-05-16T12:25:37.443Z,31.93
2023-05-16T12:25:51.095Z,31.83
2023-05-16T12:26:06.867Z,32.66
2023-05-16T12:26:26.820Z,32.92
2023-05-16T12:26:41.275Z,32.26
2023-05-16T12:26:54.660Z,31.54
2023-05-16T12:27:08.519Z,31.80
2023-05-16T12:27:23.910Z,31.79
2023-05-16T12:27:35.748Z,31.87
2023-05-16T12:27:47.467Z,32.26
2023-05-16T12:28:01.506Z,32.13
2023-05-16T12:28:14.385Z,32.18
2023-05-16T12:28:30.962Z,32.58
2023-05-16T12:28:44.485Z,32.65
2023-05-16T12:29:00.593Z,33.12
2023-05-16T12:29:13.376Z,32.98
2023-05-16T12:29:26.707Z,32.78
2023-05-16T12:29:47.419Z,32.13
2023-05-16T12:29:59.136Z,31.95
2023-05-16T12:30:12.241Z,32.40
2023-05-16T12:30:24.856Z,32.08